createdAt,value
2017-11-13T00:01:28.905Z,12.98
2017-11-13T00:03:57.300Z,14.30
2017-11-13T00:06:25.663Z,11.63
2017-11-13T00:08:54.018Z,10.52
2017-11-13T00:11:21.647Z,10.00
2017-11-13T00:13:49.230Z,10.35
2017-11-13T00:16:16.835Z,11.65
2017-11-13T00:18:45.192Z,10.88
2017-11-13T00:21:13.575Z,12.02
2017-11-13T00:23:41.188Z,8.60
2017-11-13T00:26:08.755Z,9.35
2017-11-13T00:28:36.317Z,10.20
2017-11-13T00:31:03.938Z,11.15
2017-11-13T00:33:31.514Z,11.68
2017-11-13T00:35:59.096Z,10.82
2017-11-13T00:38:26.762Z,10.65
2017-11-13T00:40:54.375Z,9.93
2017-11-13T00:43:22.746Z,17.80
2017-11-13T00:45:50.374Z,15.30
2017-11-13T00:48:17.979Z,15.68
2017-11-13T00:50:46.320Z,17.12
2017-11-13T00:53:13.923Z,11.27
2017-11-13T00:55:42.291Z,9.30
2017-11-13T00:58:10.611Z,9.77
2017-11-13T01:00:38.178Z,11.23
2017-11-13T01:03:05.767Z,11.98
2017-11-13T01:05:33.374Z,10.90
2017-11-13T01:08:00.926Z,10.00
2017-11-13T01:10:29.247Z,13.00
2017-11-13T01:12:56.837Z,9.10
2017-11-13T01:15:24.391Z,12.60
2017-11-13T01:17:51.992Z,12.32
2017-11-13T01:20:19.573Z,10.50
2017-11-13T01:22:47.196Z,10.23
2017-11-13T01:25:15.528Z,11.48
2017-11-13T01:27:43.091Z,15.63
2017-11-13T01:30:10.688Z,19.80
2017-11-13T01:32:39.023Z,14.13
2017-11-13T01:35:06.620Z,9.23
2017-11-13T01:37:34.192Z,10.15
2017-11-13T01:40:02.559Z,11.15
2017-11-13T01:42:30.130Z,10.05
2017-11-13T01:44:58.504Z,10.57
2017-11-13T01:47:26.869Z,9.65
2017-11-13T01:49:54.439Z,10.00
2017-11-13T01:52:22.033Z,10.75
2017-11-13T01:54:49.601Z,11.68
2017-11-13T01:57:17.219Z,10.27
2017-11-13T01:59:44.784Z,13.02
2017-11-13T02:02:12.339Z,13.18
2017-11-13T02:04:39.951Z,10.50
2017-11-13T02:07:07.558Z,13.30
2017-11-13T02:09:35.121Z,14.65
2017-11-13T02:12:02.718Z,8.98
2017-11-13T02:14:30.279Z,11.27
2017-11-13T02:16:58.637Z,14.70
2017-11-13T02:19:26.970Z,12.40
2017-11-13T02:21:54.560Z,11.30
2017-11-13T02:24:22.120Z,11.15
2017-11-13T02:26:49.714Z,14.43
2017-11-13T02:29:18.071Z,9.75
2017-11-13T02:31:45.634Z,18.15
2017-11-13T02:34:13.230Z,11.88
2017-11-13T02:36:40.826Z,11.32
2017-11-13T02:39:08.441Z,12.75
2017-11-13T02:41:36.052Z,13.62
2017-11-13T02:44:03.631Z,10.77
2017-11-13T02:46:31.218Z,14.25
2017-11-13T02:48:59.553Z,15.35
2017-11-13T02:51:27.136Z,9.25
2017-11-13T02:53:54.690Z,10.68
2017-11-13T02:56:22.344Z,10.63
2017-11-13T02:58:49.901Z,13.82
2017-11-13T03:01:17.464Z,11.45
2017-11-13T03:03:45.093Z,16.17
2017-11-13T03:06:12.644Z,9.80
2017-11-13T03:08:40.258Z,11.70
2017-11-13T03:11:07.815Z,18.17
2017-11-13T03:13:35.369Z,11.10
2017-11-13T03:16:02.974Z,16.42
2017-11-13T03:18:30.544Z,14.80
2017-11-13T03:20:58.263Z,12.40
2017-11-13T03:23:26.661Z,13.88
2017-11-13T03:25:54.983Z,13.68
2017-11-13T03:28:22.536Z,11.55
2017-11-13T03:30:50.141Z,13.50
2017-11-13T03:33:18.503Z,11.02
2017-11-13T03:35:46.064Z,11.00
2017-11-13T03:38:13.670Z,11.38
2017-11-13T03:40:41.995Z,14.43
2017-11-13T03:43:09.547Z,10.23
2017-11-13T03:45:37.160Z,12.73
2017-11-13T03:48:05.485Z,13.13
2017-11-13T03:50:33.066Z,14.52
2017-11-13T03:53:00.684Z,10.73
2017-11-13T03:55:28.283Z,13.00
2017-11-13T03:57:55.837Z,13.15
2017-11-13T04:00:23.426Z,13.77
2017-11-13T04:02:51.015Z,16.98
2017-11-13T04:05:19.383Z,19.15
2017-11-13T04:07:47.749Z,18.40
2017-11-13T04:10:16.117Z,11.40
2017-11-13T04:12:43.753Z,11.90
2017-11-13T04:15:11.359Z,12.73
2017-11-13T04:17:39.687Z,17.70
2017-11-13T04:20:07.247Z,13.90
2017-11-13T04:22:34.838Z,11.23
2017-11-13T04:25:02.436Z,11.90
2017-11-13T04:27:30.294Z,21.60
2017-11-13T04:29:58.651Z,17.35
2017-11-13T04:32:26.243Z,28.33
2017-11-13T04:34:54.586Z,15.05
2017-11-13T04:37:22.183Z,13.10
2017-11-13T04:39:50.559Z,14.25
2017-11-13T04:42:18.890Z,13.25
2017-11-13T04:44:46.493Z,12.80
2017-11-13T04:47:14.820Z,11.15
2017-11-13T04:49:42.368Z,13.52
2017-11-13T04:52:09.971Z,12.70
2017-11-13T04:54:37.534Z,12.63
2017-11-13T04:57:05.120Z,11.70
2017-11-13T04:59:33.440Z,24.50
2017-11-13T05:02:01.047Z,12.93
2017-11-13T05:04:29.412Z,16.02
2017-11-13T05:06:56.994Z,26.65
2017-11-13T05:09:25.364Z,18.83
2017-11-13T05:11:53.702Z,12.57
2017-11-13T05:14:21.294Z,14.52
2017-11-13T05:16:48.858Z,12.82
2017-11-13T05:19:16.467Z,15.45
2017-11-13T05:21:44.021Z,13.50
2017-11-13T05:24:11.595Z,13.32
2017-11-13T05:26:39.204Z,16.65
2017-11-13T05:29:07.559Z,15.82
2017-11-13T05:31:35.120Z,14.60
2017-11-13T05:34:02.740Z,13.77
2017-11-13T05:36:30.338Z,16.48
2017-11-13T05:38:57.953Z,16.02
2017-11-13T05:41:25.536Z,19.70
2017-11-13T05:43:53.099Z,21.33
2017-11-13T05:46:20.704Z,16.40
2017-11-13T05:48:48.307Z,15.98
2017-11-13T05:51:15.870Z,17.45
2017-11-13T05:53:43.435Z,17.92
2017-11-13T05:56:11.040Z,20.52
2017-11-13T05:58:38.595Z,17.80
2017-11-13T06:01:06.172Z,16.20
2017-11-13T06:03:34.528Z,20.27
2017-11-13T06:06:02.088Z,15.45
2017-11-13T06:08:29.695Z,18.35
2017-11-13T06:10:57.268Z,20.05
2017-11-13T06:13:24.875Z,14.65
2017-11-13T06:15:52.505Z,15.10
2017-11-13T06:18:20.076Z,19.45
2017-11-13T06:20:47.634Z,24.25
2017-11-13T06:23:15.239Z,18.27
2017-11-13T06:25:43.569Z,15.90
2017-11-13T06:28:11.137Z,23.85
2017-11-13T06:30:38.745Z,16.73
2017-11-13T06:33:07.067Z,20.17
2017-11-13T06:35:34.723Z,21.95
2017-11-13T06:38:03.165Z,20.23
2017-11-13T06:40:31.561Z,14.45
2017-11-13T06:42:59.938Z,24.70
2017-11-13T06:45:27.550Z,22.92
2017-11-13T06:47:55.180Z,24.67
2017-11-13T06:50:22.768Z,29.48
2017-11-13T06:52:50.340Z,27.90
2017-11-13T06:55:17.955Z,32.28
2017-11-13T06:57:45.541Z,30.73
2017-11-13T07:00:13.096Z,26.87
2017-11-13T07:02:40.711Z,20.40
2017-11-13T07:05:09.038Z,20.75
2017-11-13T07:07:36.725Z,32.55
2017-11-13T07:10:04.407Z,21.67
2017-11-13T07:12:32.066Z,20.80
2017-11-13T07:14:59.669Z,23.02
2017-11-13T07:17:27.351Z,26.12
2017-11-13T07:19:54.977Z,23.42
2017-11-13T07:22:23.654Z,27.35
2017-11-13T07:24:51.749Z,21.23
2017-11-13T07:27:19.719Z,20.42
2017-11-13T07:29:47.492Z,21.17
2017-11-13T07:32:15.175Z,22.00
2017-11-13T07:34:43.033Z,16.12
2017-11-13T07:37:10.745Z,19.55
2017-11-13T07:39:39.483Z,23.25
2017-11-13T07:42:07.169Z,27.20
2017-11-13T07:44:35.228Z,21.67
2017-11-13T07:47:03.928Z,13.40
2017-11-13T07:49:32.433Z,22.60
2017-11-13T07:52:00.871Z,16.37
2017-11-13T07:54:28.722Z,17.48
2017-11-13T07:56:56.383Z,17.80
2017-11-13T07:59:24.795Z,19.17
2017-11-13T08:02:05.036Z,13.15
2017-11-13T08:04:33.972Z,11.25
2017-11-13T08:07:02.806Z,20.65
2017-11-13T08:09:30.777Z,15.13
2017-11-13T08:11:58.548Z,25.50
2017-11-13T08:14:26.502Z,13.15
2017-11-13T08:16:54.140Z,15.38
2017-11-13T08:19:22.467Z,15.55
2017-11-13T08:21:50.075Z,12.90
2017-11-13T08:24:18.407Z,13.82
2017-11-13T08:26:46.046Z,14.48
2017-11-13T08:29:13.601Z,10.98
2017-11-13T08:31:41.159Z,17.27
2017-11-13T08:34:08.871Z,13.95
2017-11-13T08:36:36.474Z,13.75
2017-11-13T08:39:04.979Z,16.52
2017-11-13T08:41:32.556Z,15.73
2017-11-13T08:44:00.176Z,15.13
2017-11-13T08:46:28.544Z,19.83
2017-11-13T08:48:56.907Z,27.35
2017-11-13T08:51:24.487Z,16.02
2017-11-13T08:53:52.843Z,13.68
2017-11-13T08:56:20.496Z,18.67
2017-11-13T08:58:48.159Z,15.90
2017-11-13T09:01:15.783Z,17.02
2017-11-13T09:03:43.377Z,18.92
2017-11-13T09:06:10.982Z,25.52
2017-11-13T09:08:39.341Z,18.95
2017-11-13T09:11:07.733Z,60.65
2017-11-13T09:13:36.372Z,24.00
2017-11-13T09:16:03.976Z,29.58
2017-11-13T09:18:32.355Z,27.65
2017-11-13T09:21:00.692Z,25.50
2017-11-13T09:23:28.346Z,33.17
2017-11-13T09:25:56.663Z,25.50
2017-11-13T09:28:24.225Z,26.87
2017-11-13T09:30:51.845Z,27.23
2017-11-13T09:33:19.475Z,26.02
2017-11-13T09:35:47.084Z,23.08
2017-11-13T09:38:14.646Z,25.92
2017-11-13T09:40:43.251Z,24.48
2017-11-13T09:43:10.856Z,27.87
2017-11-13T09:45:38.455Z,29.80
2017-11-13T09:48:06.236Z,28.48
2017-11-13T09:50:33.871Z,27.25
2017-11-13T09:53:01.478Z,24.77
2017-11-13T09:55:29.886Z,25.70
2017-11-13T09:57:57.518Z,19.33
2017-11-13T10:00:25.135Z,27.73
2017-11-13T10:02:52.699Z,26.87
2017-11-13T10:05:20.271Z,20.50
2017-11-13T10:07:48.522Z,22.42
2017-11-13T10:10:16.107Z,25.30
2017-11-13T10:12:43.738Z,34.15
2017-11-13T10:15:11.317Z,21.65
2017-11-13T10:17:39.115Z,32.53
2017-11-13T10:20:08.884Z,28.45
2017-11-13T10:22:37.680Z,32.22
2017-11-13T10:25:05.319Z,22.60
2017-11-13T10:27:33.195Z,20.70
2017-11-13T10:30:00.809Z,15.90
2017-11-13T10:32:29.447Z,15.50
2017-11-13T10:34:57.061Z,16.92
2017-11-13T10:37:25.472Z,18.83
2017-11-13T10:39:53.111Z,19.33
2017-11-13T10:42:21.476Z,18.20
2017-11-13T10:44:49.131Z,17.80
2017-11-13T10:47:16.711Z,20.27
2017-11-13T10:49:44.405Z,19.37
2017-11-13T10:52:11.982Z,22.02
2017-11-13T10:54:40.082Z,17.65
2017-11-13T10:57:07.777Z,17.95
2017-11-13T10:59:35.943Z,22.67
2017-11-13T11:02:04.607Z,19.52
2017-11-13T11:04:51.086Z,18.33
2017-11-13T11:07:20.383Z,19.30
2017-11-13T11:09:48.824Z,20.92
2017-11-13T11:12:32.464Z,20.98
2017-11-13T11:15:02.791Z,21.70
2017-11-13T11:17:45.546Z,25.05
2017-11-13T11:20:28.480Z,17.90
2017-11-13T11:23:12.803Z,17.67
2017-11-13T11:26:00.392Z,21.27
2017-11-13T11:28:42.356Z,19.42
2017-11-13T11:31:25.763Z,16.30
2017-11-13T11:34:12.056Z,18.17
2017-11-13T11:36:57.171Z,15.60
2017-11-13T11:39:24.728Z,12.02
2017-11-13T11:41:52.570Z,11.70
2017-11-13T11:44:41.084Z,6.65
2017-11-13T11:47:08.754Z,6.12
2017-11-13T11:49:56.916Z,6.93
2017-11-13T11:52:25.123Z,18.70
2017-11-13T11:54:52.735Z,7.87
2017-11-13T11:57:35.197Z,8.73
2017-11-13T12:00:02.850Z,7.10
2017-11-13T12:02:30.667Z,10.27
2017-11-13T12:04:59.018Z,9.18
2017-11-13T12:07:27.431Z,8.90
2017-11-13T12:09:55.074Z,8.98
2017-11-13T12:12:23.460Z,11.70
2017-11-13T12:14:51.799Z,10.85
2017-11-13T12:17:19.395Z,15.88
2017-11-13T12:19:47.083Z,7.28
2017-11-13T12:22:14.652Z,9.52
2017-11-13T12:24:42.313Z,9.40
2017-11-13T12:27:09.872Z,11.48
2017-11-13T12:29:37.460Z,7.07
2017-11-13T12:32:05.018Z,12.25
2017-11-13T12:34:32.646Z,7.32
2017-11-13T12:37:01.059Z,8.23
2017-11-13T12:39:28.640Z,8.15
2017-11-13T12:41:56.328Z,11.40
2017-11-13T12:44:24.011Z,9.15
2017-11-13T12:46:51.718Z,12.93
2017-11-13T12:49:19.289Z,14.48
2017-11-13T12:51:46.870Z,14.90
2017-11-13T12:54:14.549Z,18.67
2017-11-13T12:56:42.879Z,14.02
2017-11-13T12:59:10.495Z,23.12
2017-11-13T13:01:38.886Z,14.05
2017-11-13T13:04:06.551Z,10.23
2017-11-13T13:06:34.238Z,22.48
2017-11-13T13:09:01.850Z,11.63
2017-11-13T13:11:29.565Z,9.82
2017-11-13T13:13:57.146Z,9.73
2017-11-13T13:16:24.727Z,9.20
2017-11-13T13:18:52.346Z,8.13
2017-11-13T13:21:19.942Z,9.18
2017-11-13T13:23:47.542Z,9.70
2017-11-13T13:26:15.112Z,27.55
2017-11-13T13:28:43.173Z,6.30
2017-11-13T13:31:10.911Z,8.05
2017-11-13T13:33:38.567Z,41.17
2017-11-13T13:36:06.158Z,17.70
2017-11-13T13:38:33.747Z,11.27
2017-11-13T13:41:01.467Z,23.85
2017-11-13T13:43:29.818Z,18.85
2017-11-13T13:45:57.370Z,11.75
2017-11-13T13:48:25.076Z,10.30
2017-11-13T13:50:53.438Z,11.48
2017-11-13T13:53:21.115Z,11.10
2017-11-13T13:55:48.686Z,11.65
2017-11-13T13:58:16.372Z,10.63
2017-11-13T14:03:50.816Z,5.35
2017-11-13T14:06:46.314Z,7.18
2017-11-13T14:09:35.794Z,11.90
2017-11-13T14:12:06.047Z,4.65
2017-11-13T14:14:41.387Z,9.38
2017-11-13T14:17:09.155Z,9.90
2017-11-13T14:19:45.784Z,12.23
2017-11-13T14:22:26.308Z,15.55
2017-11-13T14:28:29.928Z,13.07
2017-11-13T14:30:57.726Z,5.05
2017-11-13T14:33:26.111Z,7.30
2017-11-13T14:35:54.461Z,6.00
2017-11-13T14:38:22.071Z,9.20
2017-11-13T14:40:49.629Z,6.35
2017-11-13T14:43:17.322Z,7.20
2017-11-13T14:45:44.949Z,8.10
2017-11-13T14:48:13.262Z,10.05
2017-11-13T14:50:40.855Z,15.25
2017-11-13T14:53:08.422Z,7.22
2017-11-13T14:55:36.762Z,7.12
2017-11-13T14:58:04.372Z,6.20
2017-11-13T15:00:32.771Z,6.72
2017-11-13T15:03:00.498Z,17.08
2017-11-13T15:05:28.860Z,9.20
2017-11-13T15:07:56.483Z,11.48
2017-11-13T15:10:24.351Z,9.55
2017-11-13T15:12:51.919Z,17.60
2017-11-13T15:15:19.531Z,26.05
2017-11-13T15:17:47.565Z,8.57
2017-11-13T15:20:15.181Z,14.00
2017-11-13T15:22:43.543Z,12.18
2017-11-13T15:25:11.278Z,8.82
2017-11-13T15:27:38.852Z,16.27
2017-11-13T15:30:06.463Z,15.05
2017-11-13T15:32:34.136Z,13.70
2017-11-13T15:35:01.739Z,13.98
2017-11-13T15:37:29.347Z,15.68
2017-11-13T15:39:57.958Z,20.85
2017-11-13T15:42:25.545Z,14.45
2017-11-13T15:44:54.411Z,15.13
2017-11-13T15:47:22.824Z,17.35
2017-11-13T15:49:50.390Z,20.92
2017-11-13T15:52:19.642Z,19.20
2017-11-13T15:54:47.976Z,16.42
2017-11-13T15:57:16.350Z,12.07
2017-11-13T15:59:44.103Z,13.93
2017-11-13T16:02:11.714Z,13.35
2017-11-13T16:04:39.310Z,11.30
2017-11-13T16:07:08.201Z,12.13
2017-11-13T16:09:36.773Z,12.00
2017-11-13T16:12:05.861Z,17.80
2017-11-13T16:14:34.631Z,13.23
2017-11-13T16:17:03.395Z,15.95
2017-11-13T16:19:31.952Z,18.10
2017-11-13T16:22:00.343Z,12.43
2017-11-13T16:24:29.915Z,12.73
2017-11-13T16:26:58.963Z,15.90
2017-11-13T16:29:29.717Z,13.77
2017-11-13T16:31:58.649Z,16.80
2017-11-13T16:34:28.673Z,15.40
2017-11-13T16:37:03.244Z,16.83
2017-11-13T16:42:56.693Z,19.05
2017-11-13T16:45:26.731Z,24.45
2017-11-13T16:47:54.365Z,20.52
2017-11-13T16:50:21.934Z,15.65
2017-11-13T16:52:49.504Z,22.92
2017-11-13T16:55:17.668Z,22.48
2017-11-13T16:57:45.235Z,34.42
2017-11-13T17:00:12.819Z,35.17
2017-11-13T17:02:41.224Z,29.25
2017-11-13T17:05:08.834Z,23.85
2017-11-13T17:07:38.162Z,21.08
2017-11-13T17:10:08.055Z,25.88
2017-11-13T17:12:37.613Z,30.62
2017-11-13T17:15:08.597Z,18.20
2017-11-13T17:17:40.230Z,19.40
2017-11-13T17:20:10.233Z,22.75
2017-11-13T17:22:39.951Z,25.88
2017-11-13T17:25:09.872Z,34.35
2017-11-13T17:27:39.768Z,34.10
2017-11-13T17:30:09.857Z,28.02
2017-11-13T17:32:40.484Z,25.83
2017-11-13T17:35:11.489Z,20.42
2017-11-13T17:37:42.202Z,21.00
2017-11-13T17:40:11.810Z,28.10
2017-11-13T17:42:41.483Z,23.70
2017-11-13T17:45:12.330Z,27.33
2017-11-13T17:47:41.717Z,51.88
2017-11-13T17:50:12.372Z,31.05
2017-11-13T17:52:42.804Z,21.55
2017-11-13T17:55:13.610Z,34.25
2017-11-13T17:57:43.400Z,24.67
2017-11-13T18:00:13.319Z,24.02
2017-11-13T18:02:42.968Z,18.73
2017-11-13T18:05:13.534Z,28.75
2017-11-13T18:07:43.284Z,32.63
2017-11-13T18:10:12.536Z,34.47
2017-11-13T18:12:42.360Z,24.20
2017-11-13T18:15:12.257Z,26.33
2017-11-13T18:17:42.590Z,26.12
2017-11-13T18:20:13.200Z,30.00
2017-11-13T18:22:44.231Z,27.23
2017-11-13T18:25:15.326Z,29.85
2017-11-13T18:27:45.167Z,28.38
2017-11-13T18:30:15.070Z,31.45
2017-11-13T18:32:44.029Z,34.38
2017-11-13T18:35:13.899Z,31.60
2017-11-13T18:37:43.796Z,27.90
2017-11-13T18:40:13.331Z,25.67
2017-11-13T18:42:43.957Z,25.60
2017-11-13T18:45:14.465Z,32.38
2017-11-13T18:47:44.236Z,28.87
2017-11-13T18:50:13.988Z,24.58
2017-11-13T18:52:44.457Z,33.38
2017-11-13T18:55:15.072Z,25.90
2017-11-13T18:57:45.117Z,33.72
2017-11-13T19:00:14.990Z,27.60
2017-11-13T19:02:45.484Z,29.33
2017-11-13T19:05:15.218Z,25.15
2017-11-13T19:07:45.135Z,34.95
2017-11-13T19:10:14.818Z,24.23
2017-11-13T19:12:45.134Z,34.25
2017-11-13T19:15:14.873Z,33.22
2017-11-13T19:17:44.628Z,30.50
2017-11-13T19:20:18.842Z,27.05
2017-11-13T19:22:50.155Z,26.20
2017-11-13T19:25:18.479Z,28.67
2017-11-13T19:27:46.868Z,28.83
2017-11-13T19:30:15.520Z,37.05
2017-11-13T19:32:46.306Z,34.65
2017-11-13T19:35:16.545Z,38.97
2017-11-13T19:37:45.592Z,32.40
2017-11-13T19:40:15.389Z,38.10
2017-11-13T19:42:47.640Z,38.42
2017-11-13T19:45:16.122Z,39.30
2017-11-13T19:47:45.566Z,39.67
2017-11-13T19:50:13.807Z,32.22
2017-11-13T19:52:42.312Z,33.88
2017-11-13T19:55:11.924Z,29.08
2017-11-13T19:57:41.044Z,32.65
2017-11-13T20:00:09.271Z,31.85
2017-11-13T20:02:38.929Z,27.55
2017-11-13T20:05:08.161Z,34.40
2017-11-13T20:07:41.841Z,28.20
2017-11-13T20:10:10.895Z,30.00
2017-11-13T20:12:39.925Z,31.55
2017-11-13T20:15:09.199Z,32.22
2017-11-13T20:17:39.296Z,30.37
2017-11-13T20:20:09.608Z,33.00
2017-11-13T20:22:39.002Z,30.12
2017-11-13T20:25:08.313Z,32.72
2017-11-13T20:27:36.844Z,29.15
2017-11-13T20:30:05.214Z,40.12
2017-11-13T20:32:34.972Z,38.75
2017-11-13T20:35:03.161Z,45.20
2017-11-13T20:37:31.366Z,36.17
2017-11-13T20:40:00.322Z,42.03
2017-11-13T20:42:28.646Z,34.03
2017-11-13T20:44:58.020Z,32.13
2017-11-13T20:47:27.371Z,43.30
2017-11-13T20:49:57.020Z,35.22
2017-11-13T20:52:26.861Z,40.22
2017-11-13T20:54:58.179Z,40.05
2017-11-13T20:57:28.019Z,34.15
2017-11-13T20:59:57.453Z,45.28
2017-11-13T21:02:28.476Z,42.92
2017-11-13T21:04:59.468Z,43.33
2017-11-13T21:07:30.010Z,44.95
2017-11-13T21:09:59.703Z,33.55
2017-11-13T21:12:30.006Z,32.20
2017-11-13T21:14:58.632Z,29.63
2017-11-13T21:17:28.007Z,32.50
2017-11-13T21:19:57.258Z,28.80
2017-11-13T21:22:27.796Z,30.45
2017-11-13T21:24:57.467Z,37.90
2017-11-13T21:27:27.242Z,24.33
2017-11-13T21:29:57.037Z,34.80
2017-11-13T21:32:27.221Z,33.20
2017-11-13T21:34:56.718Z,26.42
2017-11-13T21:37:26.309Z,27.98
2017-11-13T21:39:54.222Z,26.67
2017-11-13T21:42:23.310Z,27.98
2017-11-13T21:44:52.584Z,30.23
2017-11-13T21:47:23.388Z,35.85
2017-11-13T21:49:52.166Z,26.02
2017-11-13T21:52:21.457Z,32.55
2017-11-13T21:54:52.007Z,38.83
2017-11-13T21:57:21.325Z,33.28
2017-11-13T21:59:50.338Z,31.85
2017-11-13T22:02:18.955Z,28.55
2017-11-13T22:04:46.886Z,29.65
2017-11-13T22:07:16.755Z,29.35
2017-11-13T22:09:47.046Z,28.40
2017-11-13T22:12:16.522Z,25.65
2017-11-13T22:14:45.879Z,22.80
2017-11-13T22:17:15.890Z,39.90
2017-11-13T22:19:44.919Z,29.48
2017-11-13T22:22:13.275Z,26.80
2017-11-13T22:24:43.183Z,31.12
2017-11-13T22:27:13.713Z,23.70
2017-11-13T22:29:44.124Z,27.90
2017-11-13T22:32:13.772Z,30.98
2017-11-13T22:34:43.302Z,36.22
2017-11-13T22:37:12.759Z,24.85
2017-11-13T22:39:42.189Z,26.02
2017-11-13T22:42:11.725Z,31.60
2017-11-13T22:44:40.375Z,29.12
2017-11-13T22:47:10.467Z,31.58
2017-11-13T22:49:40.002Z,33.10
2017-11-13T22:52:11.665Z,39.53
2017-11-13T22:54:41.258Z,37.72
2017-11-13T22:57:11.452Z,34.95
2017-11-13T22:59:40.287Z,36.22
2017-11-13T23:02:09.165Z,33.10
2017-11-13T23:04:38.627Z,30.15
2017-11-13T23:07:06.218Z,33.45
2017-11-13T23:09:35.324Z,34.00
2017-11-13T23:12:03.656Z,39.90
2017-11-13T23:14:32.922Z,33.67
2017-11-13T23:17:00.530Z,32.15
2017-11-13T23:19:28.135Z,44.30
2017-11-13T23:21:55.734Z,50.85
2017-11-13T23:24:23.300Z,59.38
2017-11-13T23:26:50.928Z,54.80
2017-11-13T23:29:18.517Z,47.60
2017-11-13T23:31:46.137Z,58.05
2017-11-13T23:34:14.518Z,59.92
2017-11-13T23:36:42.113Z,46.33
2017-11-13T23:39:09.770Z,102.65
2017-11-13T23:41:37.351Z,123.32
2017-11-13T23:44:04.927Z,46.78
2017-11-13T23:46:32.542Z,46.72
2017-11-13T23:49:00.119Z,70.95
2017-11-13T23:51:27.698Z,59.05
2017-11-13T23:53:55.320Z,71.90
2017-11-13T23:56:22.889Z,56.13
2017-11-13T23:58:50.461Z,61.95
